sensor_id;sensor_type;location;lat;lon;timestamp;pressure;altitude;pressure_sealevel;temperature;humidity
740;BME280;354;42.694;23.336;2022-09-02T00:01:44;62912.72;;;-145.09;100.00
740;BME280;354;42.694;23.336;2022-09-02T00:04:21;62912.72;;;-145.09;100.00
740;BME280;354;42.694;23.336;2022-09-02T00:06:49;62912.72;;;-145.09;100.00
740;BME280;354;42.694;23.336;2022-09-02T00:09:17;62912.72;;;-145.09;100.00
740;BME280;354;42.694;23.336;2022-09-02T00:11:44;62912.72;;;-145.09;100.00
740;BME280;354;42.694;23.336;2022-09-02T00:14:20;62912.72;;;-145.09;100.00
740;BME280;354;42.694;23.336;2022-09-02T00:16:46;62912.72;;;-145.09;100.00
740;BME280;354;42.694;23.336;2022-09-02T00:19:26;62912.72;;;-145.09;100.00
740;BME280;354;42.694;23.336;2022-09-02T00:21:54;62912.72;;;-145.09;100.00
740;BME280;354;42.694;23.336;2022-09-02T00:24:21;62912.72;;;-145.09;100.00
740;BME280;354;42.694;23.336;2022-09-02T00:26:47;62912.72;;;-145.09;100.00
740;BME280;354;42.694;23.336;2022-09-02T00:29:13;62912.72;;;-145.09;100.00
740;BME280;354;42.694;23.336;2022-09-02T00:31:43;62912.72;;;-145.09;100.00
740;BME280;354;42.694;23.336;2022-09-02T00:34:10;62912.72;;;-145.09;100.00
740;BME280;354;42.694;23.336;2022-09-02T00:36:35;62912.72;;;-145.09;100.00
740;BME280;354;42.694;23.336;2022-09-02T00:39:03;62912.72;;;-145.09;100.00
740;BME280;354;42.694;23.336;2022-09-02T00:41:29;62912.72;;;-145.09;100.00
740;BME280;354;42.694;23.336;2022-09-02T00:43:59;62912.72;;;-145.09;100.00
740;BME280;354;42.694;23.336;2022-09-02T00:46:27;62912.72;;;-145.09;100.00
740;BME280;354;42.694;23.336;2022-09-02T00:49:06;62912.72;;;-145.09;100.00
740;BME280;354;42.694;23.336;2022-09-02T00:51:37;62912.72;;;-145.09;100.00
740;BME280;354;42.694;23.336;2022-09-02T00:54:04;62912.72;;;-145.09;100.00
740;BME280;354;42.694;23.336;2022-09-02T00:56:31;62912.72;;;-145.09;100.00
740;BME280;354;42.694;23.336;2022-09-02T00:58:58;62912.72;;;-145.09;100.00
740;BME280;354;42.694;23.336;2022-09-02T01:01:24;62912.72;;;-145.09;100.00
740;BME280;354;42.694;23.336;2022-09-02T01:03:51;62912.72;;;-145.09;100.00
740;BME280;354;42.694;23.336;2022-09-02T01:06:20;62912.72;;;-145.09;100.00
740;BME280;354;42.694;23.336;2022-09-02T01:08:51;62912.72;;;-145.09;100.00
740;BME280;354;42.694;23.336;2022-09-02T01:11:21;62912.72;;;-145.09;100.00
740;BME280;354;42.694;23.336;2022-09-02T01:13:47;62912.72;;;-145.09;100.00
740;BME280;354;42.694;23.336;2022-09-02T01:16:29;62912.72;;;-145.09;100.00
740;BME280;354;42.694;23.336;2022-09-02T01:18:57;62912.72;;;-145.09;100.00
740;BME280;354;42.694;23.336;2022-09-02T01:21:25;62912.72;;;-145.09;100.00
740;BME280;354;42.694;23.336;2022-09-02T01:23:51;62912.72;;;-145.09;100.00
740;BME280;354;42.694;23.336;2022-09-02T01:26:18;62912.72;;;-145.09;100.00
740;BME280;354;42.694;23.336;2022-09-02T01:28:44;62912.72;;;-145.09;100.00
740;BME280;354;42.694;23.336;2022-09-02T01:31:09;62912.72;;;-145.09;100.00
740;BME280;354;42.694;23.336;2022-09-02T01:33:35;62912.72;;;-145.09;100.00
740;BME280;354;42.694;23.336;2022-09-02T01:36:01;62912.72;;;-145.09;100.00
740;BME280;354;42.694;23.336;2022-09-02T01:38:28;62912.72;;;-145.09;100.00
740;BME280;354;42.694;23.336;2022-09-02T01:40:53;62912.72;;;-145.09;100.00
740;BME280;354;42.694;23.336;2022-09-02T01:43:24;62912.72;;;-145.09;100.00
740;BME280;354;42.694;23.336;2022-09-02T01:45:53;62912.72;;;-145.09;100.00
740;BME280;354;42.694;23.336;2022-09-02T01:48:19;62912.72;;;-145.09;100.00
740;BME280;354;42.694;23.336;2022-09-02T01:50:48;62912.72;;;-145.09;100.00
740;BME280;354;42.694;23.336;2022-09-02T01:53:15;62912.72;;;-145.09;100.00
740;BME280;354;42.694;23.336;2022-09-02T01:55:40;62912.72;;;-145.09;100.00
740;BME280;354;42.694;23.336;2022-09-02T01:58:06;62912.72;;;-145.09;100.00
740;BME280;354;42.694;23.336;2022-09-02T02:00:31;62912.72;;;-145.09;100.00
740;BME280;354;42.694;23.336;2022-09-02T02:02:57;62912.72;;;-145.09;100.00
740;BME280;354;42.694;23.336;2022-09-02T02:05:22;62912.72;;;-145.09;100.00
740;BME280;354;42.694;23.336;2022-09-02T02:07:48;62912.72;;;-145.09;100.00
740;BME280;354;42.694;23.336;2022-09-02T02:10:16;62912.72;;;-145.09;100.00
740;BME280;354;42.694;23.336;2022-09-02T02:12:42;62912.72;;;-145.09;100.00
740;BME280;354;42.694;23.336;2022-09-02T02:15:13;62912.72;;;-145.09;100.00
740;BME280;354;42.694;23.336;2022-09-02T02:17:39;62912.72;;;-145.09;100.00
740;BME280;354;42.694;23.336;2022-09-02T02:20:06;62912.72;;;-145.09;100.00
740;BME280;354;42.694;23.336;2022-09-02T02:22:32;62912.72;;;-145.09;100.00
740;BME280;354;42.694;23.336;2022-09-02T02:24:58;62912.72;;;-145.09;100.00
740;BME280;354;42.694;23.336;2022-09-02T02:27:23;62912.72;;;-145.09;100.00
740;BME280;354;42.694;23.336;2022-09-02T02:29:49;62912.72;;;-145.09;100.00
740;BME280;354;42.694;23.336;2022-09-02T02:32:14;62912.72;;;-145.09;100.00
740;BME280;354;42.694;23.336;2022-09-02T02:34:42;62912.72;;;-145.09;100.00
740;BME280;354;42.694;23.336;2022-09-02T02:37:08;62912.72;;;-145.09;100.00
740;BME280;354;42.694;23.336;2022-09-02T02:39:36;62912.72;;;-145.09;100.00
740;BME280;354;42.694;23.336;2022-09-02T02:42:02;62912.72;;;-145.09;100.00
740;BME280;354;42.694;23.336;2022-09-02T02:44:27;62912.72;;;-145.09;100.00
740;BME280;354;42.694;23.336;2022-09-02T02:46:53;62912.72;;;-145.09;100.00
740;BME280;354;42.694;23.336;2022-09-02T02:49:19;62912.72;;;-145.09;100.00
740;BME280;354;42.694;23.336;2022-09-02T02:51:44;62912.72;;;-145.09;100.00
740;BME280;354;42.694;23.336;2022-09-02T02:54:10;62912.72;;;-145.09;100.00
740;BME280;354;42.694;23.336;2022-09-02T02:56:38;62912.72;;;-145.09;100.00
740;BME280;354;42.694;23.336;2022-09-02T02:59:04;62912.72;;;-145.09;100.00
740;BME280;354;42.694;23.336;2022-09-02T03:01:30;62912.72;;;-145.09;100.00
740;BME280;354;42.694;23.336;2022-09-02T03:03:56;62912.72;;;-145.09;100.00
740;BME280;354;42.694;23.336;2022-09-02T03:06:21;62912.72;;;-145.09;100.00
740;BME280;354;42.694;23.336;2022-09-02T03:08:47;62912.72;;;-145.09;100.00
740;BME280;354;42.694;23.336;2022-09-02T03:11:14;62912.72;;;-145.09;100.00
740;BME280;354;42.694;23.336;2022-09-02T03:13:39;62912.72;;;-145.09;100.00
740;BME280;354;42.694;23.336;2022-09-02T03:16:05;62912.72;;;-145.09;100.00
740;BME280;354;42.694;23.336;2022-09-02T03:18:31;62912.72;;;-145.09;100.00
740;BME280;354;42.694;23.336;2022-09-02T03:20:57;62912.72;;;-145.09;100.00
740;BME280;354;42.694;23.336;2022-09-02T03:23:22;62912.72;;;-145.09;100.00
740;BME280;354;42.694;23.336;2022-09-02T03:25:48;62912.72;;;-145.09;100.00
740;BME280;354;42.694;23.336;2022-09-02T03:28:13;62912.72;;;-145.09;100.00
740;BME280;354;42.694;23.336;2022-09-02T03:30:40;62912.72;;;-145.09;100.00
740;BME280;354;42.694;23.336;2022-09-02T03:33:06;62912.72;;;-145.09;100.00
740;BME280;354;42.694;23.336;2022-09-02T03:35:33;62912.72;;;-145.09;100.00
740;BME280;354;42.694;23.336;2022-09-02T03:38:02;62912.72;;;-145.09;100.00
740;BME280;354;42.694;23.336;2022-09-02T03:40:28;62912.72;;;-145.09;100.00
740;BME280;354;42.694;23.336;2022-09-02T03:42:55;62912.72;;;-145.09;100.00
740;BME280;354;42.694;23.336;2022-09-02T03:45:21;62912.72;;;-145.09;100.00
740;BME280;354;42.694;23.336;2022-09-02T03:47:47;62912.72;;;-145.09;100.00
740;BME280;354;42.694;23.336;2022-09-02T03:50:19;62912.72;;;-145.09;100.00
740;BME280;354;42.694;23.336;2022-09-02T03:52:46;62912.72;;;-145.09;100.00
740;BME280;354;42.694;23.336;2022-09-02T03:55:11;62912.72;;;-145.09;100.00
740;BME280;354;42.694;23.336;2022-09-02T03:57:37;62912.72;;;-145.09;100.00
740;BME280;354;42.694;23.336;2022-09-02T04:00:11;62912.72;;;-145.09;100.00
740;BME280;354;42.694;23.336;2022-09-02T04:02:37;62912.72;;;-145.09;100.00
740;BME280;354;42.694;23.336;2022-09-02T04:05:04;62912.72;;;-145.09;100.00
740;BME280;354;42.694;23.336;2022-09-02T04:07:30;62912.72;;;-145.09;100.00
740;BME280;354;42.694;23.336;2022-09-02T04:09:56;62912.72;;;-145.09;100.00
740;BME280;354;42.694;23.336;2022-09-02T04:12:22;62912.72;;;-145.09;100.00
740;BME280;354;42.694;23.336;2022-09-02T04:14:47;62912.72;;;-145.09;100.00
740;BME280;354;42.694;23.336;2022-09-02T04:17:13;62912.72;;;-145.09;100.00
740;BME280;354;42.694;23.336;2022-09-02T04:19:38;62912.72;;;-145.09;100.00
740;BME280;354;42.694;23.336;2022-09-02T04:22:06;62912.72;;;-145.09;100.00
740;BME280;354;42.694;23.336;2022-09-02T04:24:32;62912.72;;;-145.09;100.00
740;BME280;354;42.694;23.336;2022-09-02T04:26:59;62912.72;;;-145.09;100.00
740;BME280;354;42.694;23.336;2022-09-02T04:29:24;62912.72;;;-145.09;100.00
740;BME280;354;42.694;23.336;2022-09-02T04:31:51;62912.72;;;-145.09;100.00
740;BME280;354;42.694;23.336;2022-09-02T04:34:17;62912.72;;;-145.09;100.00
740;BME280;354;42.694;23.336;2022-09-02T04:36:42;62912.72;;;-145.09;100.00
740;BME280;354;42.694;23.336;2022-09-02T04:39:08;62912.72;;;-145.09;100.00
740;BME280;354;42.694;23.336;2022-09-02T04:41:33;62912.72;;;-145.09;100.00
740;BME280;354;42.694;23.336;2022-09-02T04:44:00;62912.72;;;-145.09;100.00
740;BME280;354;42.694;23.336;2022-09-02T04:46:26;62912.72;;;-145.09;100.00
740;BME280;354;42.694;23.336;2022-09-02T04:48:52;62912.72;;;-145.09;100.00
740;BME280;354;42.694;23.336;2022-09-02T04:51:20;62912.72;;;-145.09;100.00
740;BME280;354;42.694;23.336;2022-09-02T04:53:46;62912.72;;;-145.09;100.00
740;BME280;354;42.694;23.336;2022-09-02T04:56:15;62912.72;;;-145.09;100.00
740;BME280;354;42.694;23.336;2022-09-02T04:58:42;62912.72;;;-145.09;100.00
740;BME280;354;42.694;23.336;2022-09-02T05:01:14;62912.72;;;-145.09;100.00
740;BME280;354;42.694;23.336;2022-09-02T05:03:41;62912.72;;;-145.09;100.00
740;BME280;354;42.694;23.336;2022-09-02T05:06:09;62912.72;;;-145.09;100.00
740;BME280;354;42.694;23.336;2022-09-02T05:08:35;62912.72;;;-145.09;100.00
740;BME280;354;42.694;23.336;2022-09-02T05:11:11;62912.72;;;-145.09;100.00
740;BME280;354;42.694;23.336;2022-09-02T05:13:38;62912.72;;;-145.09;100.00
740;BME280;354;42.694;23.336;2022-09-02T05:16:04;62912.72;;;-145.09;100.00
740;BME280;354;42.694;23.336;2022-09-02T05:18:29;62912.72;;;-145.09;100.00
740;BME280;354;42.694;23.336;2022-09-02T05:20:55;62912.72;;;-145.09;100.00
740;BME280;354;42.694;23.336;2022-09-02T05:23:20;62912.72;;;-145.09;100.00
740;BME280;354;42.694;23.336;2022-09-02T05:25:46;62912.72;;;-145.09;100.00
740;BME280;354;42.694;23.336;2022-09-02T05:28:11;62912.72;;;-145.09;100.00
740;BME280;354;42.694;23.336;2022-09-02T05:30:39;62912.72;;;-145.09;100.00
740;BME280;354;42.694;23.336;2022-09-02T05:33:05;62912.72;;;-145.09;100.00
740;BME280;354;42.694;23.336;2022-09-02T05:35:30;62912.72;;;-145.09;100.00
740;BME280;354;42.694;23.336;2022-09-02T05:37:56;62912.72;;;-145.09;100.00
740;BME280;354;42.694;23.336;2022-09-02T05:40:22;62912.72;;;-145.09;100.00
740;BME280;354;42.694;23.336;2022-09-02T05:42:47;62912.72;;;-145.09;100.00
740;BME280;354;42.694;23.336;2022-09-02T05:45:13;62912.72;;;-145.09;100.00
740;BME280;354;42.694;23.336;2022-09-02T05:47:38;62912.72;;;-145.09;100.00
740;BME280;354;42.694;23.336;2022-09-02T05:50:04;62912.72;;;-145.09;100.00
740;BME280;354;42.694;23.336;2022-09-02T05:52:30;62912.72;;;-145.09;100.00
740;BME280;354;42.694;23.336;2022-09-02T05:54:56;62912.72;;;-145.09;100.00
740;BME280;354;42.694;23.336;2022-09-02T05:57:22;62912.72;;;-145.09;100.00
740;BME280;354;42.694;23.336;2022-09-02T05:59:48;62912.72;;;-145.09;100.00
740;BME280;354;42.694;23.336;2022-09-02T06:02:21;62912.72;;;-145.09;100.00
740;BME280;354;42.694;23.336;2022-09-02T06:04:48;62912.72;;;-145.09;100.00
740;BME280;354;42.694;23.336;2022-09-02T06:07:16;62912.72;;;-145.09;100.00
740;BME280;354;42.694;23.336;2022-09-02T06:09:41;62912.72;;;-145.09;100.00
740;BME280;354;42.694;23.336;2022-09-02T06:12:10;62912.72;;;-145.09;100.00
740;BME280;354;42.694;23.336;2022-09-02T06:14:36;62912.72;;;-145.09;100.00
740;BME280;354;42.694;23.336;2022-09-02T06:17:03;62912.72;;;-145.09;100.00
740;BME280;354;42.694;23.336;2022-09-02T06:19:30;62912.72;;;-145.09;100.00
740;BME280;354;42.694;23.336;2022-09-02T06:21:57;62912.72;;;-145.09;100.00
740;BME280;354;42.694;23.336;2022-09-02T06:24:24;62912.72;;;-145.09;100.00
740;BME280;354;42.694;23.336;2022-09-02T06:26:50;62912.72;;;-145.09;100.00
740;BME280;354;42.694;23.336;2022-09-02T06:29:18;62912.72;;;-145.09;100.00
740;BME280;354;42.694;23.336;2022-09-02T06:31:45;62912.72;;;-145.09;100.00
740;BME280;354;42.694;23.336;2022-09-02T06:34:12;62912.72;;;-145.09;100.00
740;BME280;354;42.694;23.336;2022-09-02T06:36:42;62912.72;;;-145.09;100.00
740;BME280;354;42.694;23.336;2022-09-02T06:39:10;62912.72;;;-145.09;100.00
740;BME280;354;42.694;23.336;2022-09-02T06:41:38;62912.72;;;-145.09;100.00
740;BME280;354;42.694;23.336;2022-09-02T06:44:05;62912.72;;;-145.09;100.00
740;BME280;354;42.694;23.336;2022-09-02T06:46:34;62912.72;;;-145.09;100.00
740;BME280;354;42.694;23.336;2022-09-02T06:49:00;62912.72;;;-145.09;100.00
740;BME280;354;42.694;23.336;2022-09-02T06:51:29;62912.72;;;-145.09;100.00
740;BME280;354;42.694;23.336;2022-09-02T06:53:56;62912.72;;;-145.09;100.00
740;BME280;354;42.694;23.336;2022-09-02T06:56:21;62912.72;;;-145.09;100.00
740;BME280;354;42.694;23.336;2022-09-02T06:58:47;62912.72;;;-145.09;100.00
740;BME280;354;42.694;23.336;2022-09-02T07:01:23;62912.72;;;-145.09;100.00
740;BME280;354;42.694;23.336;2022-09-02T07:03:49;62912.72;;;-145.09;100.00
740;BME280;354;42.694;23.336;2022-09-02T07:06:36;62912.72;;;-145.09;100.00
740;BME280;354;42.694;23.336;2022-09-02T07:09:04;62912.72;;;-145.09;100.00
740;BME280;354;42.694;23.336;2022-09-02T07:11:29;62912.72;;;-145.09;100.00
740;BME280;354;42.694;23.336;2022-09-02T07:13:55;62912.72;;;-145.09;100.00
740;BME280;354;42.694;23.336;2022-09-02T07:16:24;62912.72;;;-145.09;100.00
740;BME280;354;42.694;23.336;2022-09-02T07:18:49;62912.72;;;-145.09;100.00
740;BME280;354;42.694;23.336;2022-09-02T07:21:15;62912.72;;;-145.09;100.00
740;BME280;354;42.694;23.336;2022-09-02T07:23:40;62912.72;;;-145.09;100.00
740;BME280;354;42.694;23.336;2022-09-02T07:26:14;62912.72;;;-145.09;100.00
740;BME280;354;42.694;23.336;2022-09-02T07:28:41;62912.72;;;-145.09;100.00
740;BME280;354;42.694;23.336;2022-09-02T07:31:11;62912.72;;;-145.09;100.00
740;BME280;354;42.694;23.336;2022-09-02T07:33:37;62912.72;;;-145.09;100.00
740;BME280;354;42.694;23.336;2022-09-02T07:36:06;62912.72;;;-145.09;100.00
740;BME280;354;42.694;23.336;2022-09-02T07:38:32;62912.72;;;-145.09;100.00
740;BME280;354;42.694;23.336;2022-09-02T07:40:59;62912.72;;;-145.09;100.00
740;BME280;354;42.694;23.336;2022-09-02T07:43:25;62912.72;;;-145.09;100.00
740;BME280;354;42.694;23.336;2022-09-02T07:45:51;62912.72;;;-145.09;100.00
740;BME280;354;42.694;23.336;2022-09-02T07:48:17;62912.72;;;-145.09;100.00
740;BME280;354;42.694;23.336;2022-09-02T07:50:43;62912.72;;;-145.09;100.00
740;BME280;354;42.694;23.336;2022-09-02T07:53:08;62912.72;;;-145.09;100.00
740;BME280;354;42.694;23.336;2022-09-02T07:55:36;62912.72;;;-145.09;100.00
740;BME280;354;42.694;23.336;2022-09-02T07:58:02;62912.72;;;-145.09;100.00
740;BME280;354;42.694;23.336;2022-09-02T08:00:28;62912.72;;;-145.09;100.00
740;BME280;354;42.694;23.336;2022-09-02T08:02:54;62912.72;;;-145.09;100.00
740;BME280;354;42.694;23.336;2022-09-02T08:05:20;62912.72;;;-145.09;100.00
740;BME280;354;42.694;23.336;2022-09-02T08:07:45;62912.72;;;-145.09;100.00
740;BME280;354;42.694;23.336;2022-09-02T08:10:12;62912.72;;;-145.09;100.00
740;BME280;354;42.694;23.336;2022-09-02T08:12:42;62912.72;;;-145.09;100.00
740;BME280;354;42.694;23.336;2022-09-02T08:15:09;62912.72;;;-145.09;100.00
740;BME280;354;42.694;23.336;2022-09-02T08:17:35;62912.72;;;-145.09;100.00
740;BME280;354;42.694;23.336;2022-09-02T08:20:05;62912.72;;;-145.09;100.00
740;BME280;354;42.694;23.336;2022-09-02T08:22:34;62912.72;;;-145.09;100.00
740;BME280;354;42.694;23.336;2022-09-02T08:25:01;62912.72;;;-145.09;100.00
740;BME280;354;42.694;23.336;2022-09-02T08:27:26;62912.72;;;-145.09;100.00
740;BME280;354;42.694;23.336;2022-09-02T08:29:52;62912.72;;;-145.09;100.00
740;BME280;354;42.694;23.336;2022-09-02T08:32:18;62912.72;;;-145.09;100.00
740;BME280;354;42.694;23.336;2022-09-02T08:34:43;62912.72;;;-145.09;100.00
740;BME280;354;42.694;23.336;2022-09-02T08:37:09;62912.72;;;-145.09;100.00
740;BME280;354;42.694;23.336;2022-09-02T08:39:34;62912.72;;;-145.09;100.00
740;BME280;354;42.694;23.336;2022-09-02T08:42:15;62912.72;;;-145.09;100.00
740;BME280;354;42.694;23.336;2022-09-02T08:44:42;62912.72;;;-145.09;100.00
740;BME280;354;42.694;23.336;2022-09-02T08:47:13;62912.72;;;-145.09;100.00
740;BME280;354;42.694;23.336;2022-09-02T08:49:49;62912.72;;;-145.09;100.00
740;BME280;354;42.694;23.336;2022-09-02T08:55:04;62912.72;;;-145.09;100.00
740;BME280;354;42.694;23.336;2022-09-02T08:57:32;62912.72;;;-145.09;100.00
740;BME280;354;42.694;23.336;2022-09-02T09:00:00;62912.72;;;-145.09;100.00
740;BME280;354;42.694;23.336;2022-09-02T09:05:48;62912.72;;;-145.09;100.00
740;BME280;354;42.694;23.336;2022-09-02T09:11:04;62912.72;;;-145.09;100.00
740;BME280;354;42.694;23.336;2022-09-02T09:18:35;62912.72;;;-145.09;100.00
740;BME280;354;42.694;23.336;2022-09-02T09:21:02;62912.72;;;-145.09;100.00
740;BME280;354;42.694;23.336;2022-09-02T09:23:30;62912.72;;;-145.09;100.00
740;BME280;354;42.694;23.336;2022-09-02T09:26:07;62912.72;;;-145.09;100.00
740;BME280;354;42.694;23.336;2022-09-02T09:28:38;62912.72;;;-145.09;100.00
740;BME280;354;42.694;23.336;2022-09-02T09:31:07;62912.72;;;-145.09;100.00
740;BME280;354;42.694;23.336;2022-09-02T09:33:33;62912.72;;;-145.09;100.00
740;BME280;354;42.694;23.336;2022-09-02T10:21:01;95075.13;;;26.04;100.00
740;BME280;354;42.694;23.336;2022-09-02T10:23:36;95078.03;;;26.16;100.00
740;BME280;354;42.694;23.336;2022-09-02T10:26:15;95081.38;;;26.22;100.00
740;BME280;354;42.694;23.336;2022-09-02T10:31:32;95069.59;;;26.09;100.00
740;BME280;354;42.694;23.336;2022-09-02T10:34:09;95068.50;;;26.10;100.00
740;BME280;354;42.694;23.336;2022-09-02T10:51:05;95070.44;;;26.36;100.00
740;BME280;354;42.694;23.336;2022-09-02T10:56:33;95071.16;;;26.67;100.00
740;BME280;354;42.694;23.336;2022-09-02T10:59:09;95082.28;;;27.26;100.00
740;BME280;354;42.694;23.336;2022-09-02T11:01:52;95078.47;;;27.36;100.00
740;BME280;354;42.694;23.336;2022-09-02T11:04:27;95078.69;;;27.61;99.10
740;BME280;354;42.694;23.336;2022-09-02T11:06:56;95067.94;;;27.35;99.87
740;BME280;354;42.694;23.336;2022-09-02T11:09:35;95046.34;;;27.35;100.00
740;BME280;354;42.694;23.336;2022-09-02T11:12:17;95056.66;;;27.41;100.00
740;BME280;354;42.694;23.336;2022-09-02T11:17:24;95053.72;;;28.40;96.80
740;BME280;354;42.694;23.336;2022-09-02T11:22:56;95057.09;;;28.37;96.71
740;BME280;354;42.694;23.336;2022-09-02T11:25:31;95044.16;;;28.13;95.68
740;BME280;354;42.694;23.336;2022-09-02T11:30:49;95051.09;;;28.23;96.41
740;BME280;354;42.694;23.336;2022-09-02T11:35:47;95045.63;;;27.72;100.00
740;BME280;354;42.694;23.336;2022-09-02T11:39:01;95033.22;;;27.71;100.00
740;BME280;354;42.694;23.336;2022-09-02T11:46:48;95023.03;;;27.13;100.00
740;BME280;354;42.694;23.336;2022-09-02T11:49:55;95025.13;;;27.07;100.00
740;BME280;354;42.694;23.336;2022-09-02T11:52:54;95009.25;;;26.88;100.00
740;BME280;354;42.694;23.336;2022-09-02T11:58:35;95010.19;;;27.01;100.00
740;BME280;354;42.694;23.336;2022-09-02T12:01:05;95013.06;;;26.87;100.00
740;BME280;354;42.694;23.336;2022-09-02T12:04:06;95017.97;;;27.11;100.00
740;BME280;354;42.694;23.336;2022-09-02T12:09:51;95021.94;;;27.05;100.00
740;BME280;354;42.694;23.336;2022-09-02T12:15:12;95026.19;;;27.23;100.00
740;BME280;354;42.694;23.336;2022-09-02T12:18:04;95019.78;;;27.45;100.00
740;BME280;354;42.694;23.336;2022-09-02T12:23:03;95014.19;;;27.59;100.00
740;BME280;354;42.694;23.336;2022-09-02T12:33:47;95007.31;;;27.06;100.00
740;BME280;354;42.694;23.336;2022-09-02T12:50:16;94978.47;;;26.72;100.00
740;BME280;354;42.694;23.336;2022-09-02T12:52:46;94980.31;;;27.06;100.00
740;BME280;354;42.694;23.336;2022-09-02T12:57:48;94951.28;;;26.86;100.00
740;BME280;354;42.694;23.336;2022-09-02T13:11:34;94968.94;;;25.65;100.00
740;BME280;354;42.694;23.336;2022-09-02T13:22:38;94972.34;;;25.80;100.00
740;BME280;354;42.694;23.336;2022-09-02T13:25:34;94963.00;;;25.86;100.00
740;BME280;354;42.694;23.336;2022-09-02T13:33:24;94957.44;;;25.34;100.00
740;BME280;354;42.694;23.336;2022-09-02T13:35:55;94957.84;;;25.18;100.00
740;BME280;354;42.694;23.336;2022-09-02T13:38:24;94958.84;;;25.00;100.00
740;BME280;354;42.694;23.336;2022-09-02T13:40:49;94973.91;;;25.01;100.00
740;BME280;354;42.694;23.336;2022-09-02T13:43:20;94960.50;;;24.87;100.00
740;BME280;354;42.694;23.336;2022-09-02T13:45:47;94950.81;;;24.55;100.00
740;BME280;354;42.694;23.336;2022-09-02T13:48:14;94977.28;;;24.39;100.00
740;BME280;354;42.694;23.336;2022-09-02T13:50:45;94980.97;;;24.16;100.00
740;BME280;354;42.694;23.336;2022-09-02T13:53:32;94990.78;;;23.84;100.00
740;BME280;354;42.694;23.336;2022-09-02T13:55:59;94994.84;;;23.27;100.00
740;BME280;354;42.694;23.336;2022-09-02T13:58:42;94999.75;;;22.92;100.00
740;BME280;354;42.694;23.336;2022-09-02T14:01:33;95012.03;;;22.60;100.00
740;BME280;354;42.694;23.336;2022-09-02T14:04:02;95033.69;;;22.45;100.00
740;BME280;354;42.694;23.336;2022-09-02T14:06:35;95022.44;;;22.05;100.00
740;BME280;354;42.694;23.336;2022-09-02T14:09:05;95054.69;;;21.47;100.00
740;BME280;354;42.694;23.336;2022-09-02T14:11:37;95074.88;;;21.05;100.00
740;BME280;354;42.694;23.336;2022-09-02T14:14:05;95062.97;;;20.43;100.00
740;BME280;354;42.694;23.336;2022-09-02T14:16:35;95070.16;;;20.04;100.00
740;BME280;354;42.694;23.336;2022-09-02T14:19:11;95076.06;;;19.95;100.00
740;BME280;354;42.694;23.336;2022-09-02T14:21:55;95097.13;;;20.02;100.00
740;BME280;354;42.694;23.336;2022-09-02T14:24:27;95102.13;;;20.19;100.00
740;BME280;354;42.694;23.336;2022-09-02T14:26:55;95110.69;;;20.11;100.00
740;BME280;354;42.694;23.336;2022-09-02T14:29:21;95116.94;;;19.86;100.00
740;BME280;354;42.694;23.336;2022-09-02T14:32:08;95117.25;;;19.64;100.00
740;BME280;354;42.694;23.336;2022-09-02T14:34:40;95116.75;;;19.41;100.00
740;BME280;354;42.694;23.336;2022-09-02T14:37:19;95108.47;;;19.43;100.00
740;BME280;354;42.694;23.336;2022-09-02T14:40:07;95113.00;;;19.53;100.00
740;BME280;354;42.694;23.336;2022-09-02T14:42:50;95106.59;;;19.38;100.00
740;BME280;354;42.694;23.336;2022-09-02T14:45:30;95098.88;;;19.32;100.00
740;BME280;354;42.694;23.336;2022-09-02T14:47:59;95080.19;;;19.37;100.00
740;BME280;354;42.694;23.336;2022-09-02T14:50:29;95104.19;;;19.57;100.00
740;BME280;354;42.694;23.336;2022-09-02T14:53:00;95121.47;;;19.85;100.00
740;BME280;354;42.694;23.336;2022-09-02T14:55:51;95122.88;;;19.67;100.00
740;BME280;354;42.694;23.336;2022-09-02T14:58:18;95129.53;;;19.49;100.00
740;BME280;354;42.694;23.336;2022-09-02T15:00:50;95122.88;;;19.52;100.00
740;BME280;354;42.694;23.336;2022-09-02T15:03:20;95122.34;;;19.60;100.00
740;BME280;354;42.694;23.336;2022-09-02T15:05:46;95124.47;;;19.63;100.00
740;BME280;354;42.694;23.336;2022-09-02T15:08:12;95123.34;;;19.85;100.00
740;BME280;354;42.694;23.336;2022-09-02T15:10:39;95120.59;;;20.05;100.00
740;BME280;354;42.694;23.336;2022-09-02T15:13:07;95124.69;;;19.72;100.00
740;BME280;354;42.694;23.336;2022-09-02T15:15:36;95139.38;;;19.85;100.00
740;BME280;354;42.694;23.336;2022-09-02T15:18:02;95128.44;;;19.76;100.00
740;BME280;354;42.694;23.336;2022-09-02T15:20:29;95130.28;;;19.86;100.00
740;BME280;354;42.694;23.336;2022-09-02T15:22:55;95131.09;;;19.81;100.00
740;BME280;354;42.694;23.336;2022-09-02T15:25:21;95136.41;;;19.91;100.00
740;BME280;354;42.694;23.336;2022-09-02T15:27:46;95136.91;;;19.98;100.00
740;BME280;354;42.694;23.336;2022-09-02T15:30:12;95136.16;;;19.78;100.00
740;BME280;354;42.694;23.336;2022-09-02T15:32:37;95126.56;;;19.71;100.00
740;BME280;354;42.694;23.336;2022-09-02T15:35:04;95127.13;;;19.63;100.00
740;BME280;354;42.694;23.336;2022-09-02T15:37:31;95136.44;;;19.76;100.00
740;BME280;354;42.694;23.336;2022-09-02T15:39:59;95130.28;;;19.81;100.00
740;BME280;354;42.694;23.336;2022-09-02T15:42:24;95130.88;;;19.67;100.00
740;BME280;354;42.694;23.336;2022-09-02T15:44:50;95140.75;;;19.62;100.00
740;BME280;354;42.694;23.336;2022-09-02T15:47:15;95139.09;;;19.56;100.00
740;BME280;354;42.694;23.336;2022-09-02T15:49:41;95143.69;;;19.45;100.00
740;BME280;354;42.694;23.336;2022-09-02T15:52:06;95154.88;;;19.47;100.00
740;BME280;354;42.694;23.336;2022-09-02T15:54:32;95159.69;;;19.60;100.00